createdAt,value
2019-02-09T00:01:01.570Z,6.69
2019-02-09T00:03:30.172Z,6.67
2019-02-09T00:06:04.983Z,6.82
2019-02-09T00:08:33.584Z,6.90
2019-02-09T00:11:02.184Z,7.06
2019-02-09T00:13:30.901Z,7.06
2019-02-09T00:15:59.718Z,7.08
2019-02-09T00:18:28.312Z,7.07
2019-02-09T00:20:56.911Z,7.00
2019-02-09T00:23:25.611Z,7.04
2019-02-09T00:25:54.331Z,7.07
2019-02-09T00:28:22.928Z,6.94
2019-02-09T00:30:51.507Z,6.90
2019-02-09T00:33:20.095Z,6.84
2019-02-09T00:35:48.756Z,6.93
2019-02-09T00:38:17.338Z,6.81
2019-02-09T00:40:45.926Z,6.71
2019-02-09T00:43:14.888Z,6.66
2019-02-09T00:45:43.479Z,6.63
2019-02-09T00:48:12.061Z,6.73
2019-02-09T00:50:40.627Z,6.75
2019-02-09T00:53:10.616Z,6.70
2019-02-09T00:55:39.195Z,6.75
2019-02-09T00:58:08.972Z,6.87
2019-02-09T01:00:37.613Z,6.91
2019-02-09T01:03:06.239Z,7.04
2019-02-09T01:05:37.414Z,7.14
2019-02-09T01:08:06.152Z,7.16
2019-02-09T01:10:34.816Z,7.20
2019-02-09T01:13:03.450Z,7.22
2019-02-09T01:15:32.062Z,7.16
2019-02-09T01:18:00.650Z,7.22
2019-02-09T01:20:29.333Z,7.20
2019-02-09T01:22:57.949Z,7.01
2019-02-09T01:25:26.632Z,6.86
2019-02-09T01:27:55.312Z,6.71
2019-02-09T01:30:24.826Z,6.49
2019-02-09T01:32:53.538Z,6.41
2019-02-09T01:35:22.191Z,6.31
2019-02-09T01:37:51.542Z,6.23
2019-02-09T01:40:24.984Z,6.17
2019-02-09T01:42:53.641Z,6.10
2019-02-09T01:45:29.812Z,6.04
2019-02-09T01:47:58.458Z,6.07
2019-02-09T01:50:28.527Z,6.04
2019-02-09T01:52:57.132Z,6.01
2019-02-09T01:55:27.429Z,5.94
2019-02-09T01:57:56.026Z,6.05
2019-02-09T02:00:27.784Z,5.96
2019-02-09T02:02:56.409Z,5.99
2019-02-09T02:05:25.605Z,5.88
2019-02-09T02:07:54.408Z,5.85
2019-02-09T02:10:25.500Z,5.82
2019-02-09T02:12:54.249Z,5.81
2019-02-09T02:15:22.830Z,5.87
2019-02-09T02:17:51.412Z,5.90
2019-02-09T02:20:21.748Z,6.05
2019-02-09T02:22:50.418Z,6.00
2019-02-09T02:25:19.055Z,6.05
2019-02-09T02:27:47.699Z,6.10
2019-02-09T02:30:22.658Z,6.35
2019-02-09T02:32:51.556Z,6.32
2019-02-09T02:35:19.737Z,6.39
2019-02-09T02:37:48.346Z,6.56
2019-02-09T02:40:17.793Z,6.59
2019-02-09T02:42:46.427Z,6.62
2019-02-09T02:45:15.426Z,6.69
2019-02-09T02:47:44.037Z,6.75
2019-02-09T02:50:15.078Z,6.76
2019-02-09T02:52:43.779Z,6.80
2019-02-09T02:55:14.538Z,6.79
2019-02-09T02:57:43.197Z,6.85
2019-02-09T03:00:14.553Z,6.76
2019-02-09T03:02:43.151Z,6.64
2019-02-09T03:05:13.959Z,6.66
2019-02-09T03:07:42.558Z,6.60
2019-02-09T03:10:11.290Z,6.53
2019-02-09T03:12:39.904Z,6.52
2019-02-09T03:15:11.773Z,6.50
2019-02-09T03:17:40.404Z,6.48
2019-02-09T03:20:11.301Z,6.48
2019-02-09T03:22:39.953Z,6.46
2019-02-09T03:25:10.642Z,6.47
2019-02-09T03:27:39.294Z,6.39
2019-02-09T03:30:12.071Z,6.37
2019-02-09T03:32:44.581Z,6.35
2019-02-09T03:35:14.805Z,6.33
2019-02-09T03:37:43.566Z,6.36
2019-02-09T03:40:14.334Z,6.41
2019-02-09T03:42:42.972Z,6.37
2019-02-09T03:45:17.881Z,6.44
2019-02-09T03:47:46.690Z,6.43
2019-02-09T03:50:15.611Z,6.48
2019-02-09T03:52:44.192Z,6.45
2019-02-09T03:55:12.830Z,6.51
2019-02-09T03:57:41.468Z,6.44
2019-02-09T04:00:15.427Z,6.44
2019-02-09T04:02:44.026Z,6.49
2019-02-09T04:05:12.614Z,6.50
2019-02-09T04:07:41.310Z,6.43
2019-02-09T04:10:11.292Z,6.45
2019-02-09T04:12:39.997Z,6.40
2019-02-09T04:15:09.403Z,6.42
2019-02-09T04:17:38.008Z,6.44
2019-02-09T04:20:08.308Z,6.40
2019-02-09T04:22:36.933Z,6.40
2019-02-09T04:25:06.155Z,6.44
2019-02-09T04:27:34.762Z,6.41
2019-02-09T04:30:03.403Z,6.44
2019-02-09T04:32:32.078Z,6.44
2019-02-09T04:35:00.676Z,6.43
2019-02-09T04:37:29.252Z,6.48
2019-02-09T04:39:57.834Z,6.46
2019-02-09T04:42:26.435Z,6.52
2019-02-09T04:44:55.030Z,6.53
2019-02-09T04:47:23.597Z,6.59
2019-02-09T04:49:52.196Z,6.60
2019-02-09T04:52:20.827Z,6.61
2019-02-09T04:54:49.413Z,6.63
2019-02-09T04:57:18.033Z,6.56
2019-02-09T04:59:46.717Z,6.49
2019-02-09T05:02:15.349Z,6.44
2019-02-09T05:04:43.997Z,6.40
2019-02-09T05:07:12.603Z,6.31
2019-02-09T05:09:41.201Z,6.26
2019-02-09T05:12:09.880Z,6.28
2019-02-09T05:14:38.554Z,6.34
2019-02-09T05:17:07.147Z,6.37
2019-02-09T05:19:35.732Z,6.33
2019-02-09T05:22:04.315Z,6.34
2019-02-09T05:24:32.950Z,6.33
2019-02-09T05:27:01.551Z,6.42
2019-02-09T05:29:30.632Z,6.49
2019-02-09T05:31:59.242Z,6.51
2019-02-09T05:34:27.836Z,6.55
2019-02-09T05:36:56.460Z,6.59
2019-02-09T05:39:25.256Z,6.44
2019-02-09T05:41:53.854Z,6.37
2019-02-09T05:44:22.484Z,6.43
2019-02-09T05:46:51.130Z,6.37
2019-02-09T05:49:20.493Z,6.42
2019-02-09T05:51:50.569Z,6.45
2019-02-09T05:54:19.223Z,6.58
2019-02-09T05:56:47.823Z,6.58
2019-02-09T05:59:16.420Z,6.56
2019-02-09T06:01:44.986Z,6.54
2019-02-09T06:04:13.686Z,6.59
2019-02-09T06:06:42.278Z,6.62
2019-02-09T06:09:11.074Z,6.62
2019-02-09T06:11:39.683Z,6.67
2019-02-09T06:14:08.315Z,6.58
2019-02-09T06:16:36.918Z,6.61
2019-02-09T06:19:05.519Z,6.58
2019-02-09T06:21:34.108Z,6.58
2019-02-09T06:24:02.663Z,6.64
2019-02-09T06:26:31.252Z,6.55
2019-02-09T06:28:59.873Z,6.43
2019-02-09T06:31:28.478Z,6.40
2019-02-09T06:33:57.087Z,6.39
2019-02-09T06:36:25.684Z,6.34
2019-02-09T06:38:54.340Z,6.22
2019-02-09T06:41:22.994Z,6.16
2019-02-09T06:43:51.636Z,6.14
2019-02-09T06:46:20.207Z,6.12
2019-02-09T06:48:48.805Z,6.12
2019-02-09T06:51:17.406Z,5.92
2019-02-09T06:53:46.401Z,5.91
2019-02-09T06:56:14.972Z,5.89
2019-02-09T06:58:43.623Z,5.81
2019-02-09T07:01:12.235Z,5.82
2019-02-09T07:03:41.654Z,5.79
2019-02-09T07:06:10.345Z,5.77
2019-02-09T07:08:39.494Z,5.74
2019-02-09T07:11:08.081Z,5.69
2019-02-09T07:13:36.710Z,5.66
2019-02-09T07:16:05.559Z,5.58
2019-02-09T07:18:34.161Z,5.51
2019-02-09T07:21:02.809Z,5.38
2019-02-09T07:23:31.390Z,5.36
2019-02-09T07:26:00.099Z,5.46
2019-02-09T07:28:28.729Z,5.80
2019-02-09T07:30:57.336Z,5.79
2019-02-09T07:33:25.936Z,5.82
2019-02-09T07:35:54.548Z,5.86
2019-02-09T07:38:23.132Z,5.99
2019-02-09T07:40:51.720Z,6.01
2019-02-09T07:43:20.349Z,6.15
2019-02-09T07:45:48.962Z,6.28
2019-02-09T07:48:17.534Z,6.30
2019-02-09T07:50:46.664Z,6.44
2019-02-09T07:53:15.273Z,6.40
2019-02-09T07:55:43.887Z,6.41
2019-02-09T07:58:12.499Z,6.43
2019-02-09T08:00:41.317Z,6.50
2019-02-09T08:03:09.933Z,6.63
2019-02-09T08:05:38.592Z,6.59
2019-02-09T08:08:07.233Z,6.59
2019-02-09T08:10:35.944Z,6.66
2019-02-09T08:13:04.562Z,6.72
2019-02-09T08:15:34.230Z,6.83
2019-02-09T08:18:02.874Z,6.97
2019-02-09T08:20:31.518Z,7.17
2019-02-09T08:23:01.250Z,7.33
2019-02-09T08:25:31.624Z,7.48
2019-02-09T08:28:00.303Z,7.60
2019-02-09T08:30:37.433Z,7.65
2019-02-09T08:33:06.073Z,7.66
2019-02-09T08:35:34.695Z,7.65
2019-02-09T08:38:03.345Z,7.63
2019-02-09T08:40:32.048Z,7.63
2019-02-09T08:43:00.641Z,7.64
2019-02-09T08:45:29.235Z,7.70
2019-02-09T08:47:57.820Z,7.72
2019-02-09T08:50:29.126Z,7.70
2019-02-09T08:52:57.758Z,7.70
2019-02-09T08:55:26.447Z,7.73
2019-02-09T08:57:55.156Z,7.84
2019-02-09T09:00:25.541Z,7.90
2019-02-09T09:02:54.133Z,7.90
2019-02-09T09:05:23.704Z,7.86
2019-02-09T09:07:52.879Z,7.85
2019-02-09T09:10:22.566Z,7.85
2019-02-09T09:12:51.168Z,7.89
2019-02-09T09:15:23.044Z,7.93
2019-02-09T09:17:51.641Z,8.10
2019-02-09T09:20:23.062Z,8.23
2019-02-09T09:22:51.652Z,8.36
2019-02-09T09:25:20.279Z,8.59
2019-02-09T09:27:48.944Z,8.73
2019-02-09T09:30:19.514Z,8.81
2019-02-09T09:32:49.363Z,8.83
2019-02-09T09:35:17.970Z,8.97
2019-02-09T09:37:46.558Z,8.85
2019-02-09T09:40:30.210Z,8.82
2019-02-09T09:42:58.903Z,8.82
2019-02-09T09:45:29.399Z,8.85
2019-02-09T09:47:58.015Z,8.83
2019-02-09T09:50:28.741Z,8.93
2019-02-09T09:52:57.406Z,8.94
2019-02-09T09:55:25.986Z,9.00
2019-02-09T09:57:56.086Z,8.99
2019-02-09T10:00:25.070Z,9.11
2019-02-09T10:02:53.679Z,9.30
2019-02-09T10:05:22.386Z,9.28
2019-02-09T10:07:51.060Z,9.35
2019-02-09T10:10:19.687Z,9.55
2019-02-09T10:12:48.489Z,9.69
2019-02-09T10:15:19.015Z,9.63
2019-02-09T10:17:47.725Z,9.49
2019-02-09T10:20:18.351Z,9.35
2019-02-09T10:22:47.045Z,9.53
2019-02-09T10:25:15.721Z,9.51
2019-02-09T10:27:44.364Z,9.59
2019-02-09T10:30:15.217Z,9.45
2019-02-09T10:32:44.720Z,9.47
2019-02-09T10:35:13.871Z,9.37
2019-02-09T10:37:42.514Z,9.32
2019-02-09T10:40:13.996Z,9.18
2019-02-09T10:42:42.580Z,9.17
2019-02-09T10:45:13.713Z,9.16
2019-02-09T10:47:42.287Z,9.17
2019-02-09T10:50:15.519Z,9.22
2019-02-09T10:52:44.201Z,9.20
2019-02-09T10:55:12.917Z,9.32
2019-02-09T10:57:41.562Z,9.47
2019-02-09T11:00:14.968Z,9.40
2019-02-09T11:02:43.597Z,9.46
2019-02-09T11:05:12.304Z,9.53
2019-02-09T11:07:40.954Z,9.62
2019-02-09T11:10:11.243Z,9.69
2019-02-09T11:12:39.902Z,9.75
2019-02-09T11:15:10.479Z,9.80
2019-02-09T11:17:39.045Z,9.72
2019-02-09T11:20:09.666Z,9.82
2019-02-09T11:22:38.268Z,9.82
2019-02-09T11:25:07.931Z,9.95
2019-02-09T11:27:36.535Z,10.08
2019-02-09T11:30:07.249Z,10.16
2019-02-09T11:32:35.912Z,10.21
2019-02-09T11:35:04.911Z,10.44
2019-02-09T11:37:33.505Z,10.53
2019-02-09T11:40:02.124Z,10.63
2019-02-09T11:42:30.824Z,10.59
2019-02-09T11:44:59.463Z,10.64
2019-02-09T11:47:28.235Z,10.65
2019-02-09T11:49:56.797Z,10.80
2019-02-09T11:52:25.415Z,10.61
2019-02-09T11:54:53.996Z,10.58
2019-02-09T11:57:22.646Z,10.62
2019-02-09T11:59:51.267Z,10.48
2019-02-09T12:02:19.883Z,10.45
2019-02-09T12:04:48.571Z,10.61
2019-02-09T12:07:17.174Z,10.71
2019-02-09T12:09:45.842Z,10.55
2019-02-09T12:12:14.581Z,10.44
2019-02-09T12:14:43.214Z,10.38
2019-02-09T12:17:11.863Z,10.39
2019-02-09T12:19:40.567Z,10.31
2019-02-09T12:22:09.162Z,10.39
2019-02-09T12:24:37.770Z,10.35
2019-02-09T12:27:06.420Z,10.39
2019-02-09T12:29:35.013Z,10.16
2019-02-09T12:32:03.706Z,10.16
2019-02-09T12:34:32.338Z,10.36
2019-02-09T12:37:00.934Z,10.20
2019-02-09T12:39:29.585Z,9.93
2019-02-09T12:41:58.289Z,10.09
2019-02-09T12:44:27.232Z,10.16
2019-02-09T12:46:55.826Z,10.16
2019-02-09T12:49:24.452Z,10.23
2019-02-09T12:51:53.052Z,10.18
2019-02-09T12:54:21.704Z,10.07
2019-02-09T12:56:50.330Z,10.02
2019-02-09T12:59:18.909Z,9.90
2019-02-09T13:01:47.514Z,9.90
2019-02-09T13:04:16.146Z,9.92
2019-02-09T13:06:44.772Z,9.80
2019-02-09T13:09:13.466Z,9.90
2019-02-09T13:11:42.125Z,9.90
2019-02-09T13:14:10.691Z,10.01
2019-02-09T13:16:39.315Z,10.09
2019-02-09T13:19:07.933Z,10.15
2019-02-09T13:21:36.643Z,10.24
2019-02-09T13:24:05.688Z,10.25
2019-02-09T13:26:34.376Z,10.01
2019-02-09T13:29:02.951Z,10.09
2019-02-09T13:31:31.538Z,10.06
2019-02-09T13:34:00.155Z,10.02
2019-02-09T13:36:28.729Z,10.08
2019-02-09T13:38:57.417Z,9.88
2019-02-09T13:41:26.088Z,9.76
2019-02-09T13:43:54.736Z,9.80
2019-02-09T13:46:23.343Z,9.84
2019-02-09T13:48:52.014Z,9.88
2019-02-09T13:51:20.659Z,9.97
2019-02-09T13:53:49.514Z,10.01
2019-02-09T13:56:18.189Z,9.96
2019-02-09T13:58:46.778Z,9.92
2019-02-09T14:01:15.448Z,9.90
2019-02-09T14:03:50.964Z,9.93
2019-02-09T14:06:19.715Z,10.02
2019-02-09T14:08:48.300Z,9.96
2019-02-09T14:11:17.047Z,9.97
2019-02-09T14:13:45.648Z,9.99
2019-02-09T14:16:14.257Z,9.98
2019-02-09T14:18:42.888Z,10.03
2019-02-09T14:21:11.509Z,10.10
2019-02-09T14:23:40.122Z,10.15
2019-02-09T14:26:08.734Z,10.11
2019-02-09T14:28:38.334Z,10.12
2019-02-09T14:31:06.949Z,9.98
2019-02-09T14:33:35.662Z,9.95
2019-02-09T14:36:04.378Z,9.84
2019-02-09T14:38:32.979Z,9.77
2019-02-09T14:41:01.559Z,9.69
2019-02-09T14:43:30.158Z,9.59
2019-02-09T14:45:58.824Z,9.61
2019-02-09T14:48:27.437Z,9.57
2019-02-09T14:50:56.021Z,9.55
2019-02-09T14:53:24.724Z,9.55
2019-02-09T14:55:53.548Z,9.49
2019-02-09T14:58:22.160Z,9.40
2019-02-09T15:00:52.693Z,9.34
2019-02-09T15:03:26.925Z,9.36
2019-02-09T15:05:51.652Z,9.33
2019-02-09T15:08:20.276Z,9.28
2019-02-09T15:10:48.970Z,9.26
2019-02-09T15:13:17.540Z,9.22
2019-02-09T15:16:09.536Z,9.22
2019-02-09T15:18:38.254Z,9.21
2019-02-09T15:21:06.921Z,9.22
2019-02-09T15:23:35.565Z,9.25
2019-02-09T15:26:04.275Z,9.20
2019-02-09T15:28:32.865Z,9.22
2019-02-09T15:31:01.490Z,9.19
2019-02-09T15:33:30.200Z,9.14
2019-02-09T15:35:58.681Z,9.16
2019-02-09T15:38:27.296Z,9.10
2019-02-09T15:40:55.923Z,9.08
2019-02-09T15:43:24.559Z,9.09
2019-02-09T15:45:53.192Z,9.11
2019-02-09T15:48:22.488Z,9.13
2019-02-09T15:50:51.212Z,9.09
2019-02-09T15:53:19.812Z,9.07
2019-02-09T15:55:48.413Z,8.95
2019-02-09T15:58:17.033Z,8.79
2019-02-09T16:00:45.754Z,8.91
2019-02-09T16:03:14.383Z,8.89
2019-02-09T16:05:43.024Z,8.84
2019-02-09T16:08:11.641Z,8.73
2019-02-09T16:10:40.272Z,8.64
2019-02-09T16:13:08.884Z,8.60
2019-02-09T16:15:37.819Z,8.65
2019-02-09T16:18:06.438Z,8.54
2019-02-09T16:20:35.117Z,8.50
2019-02-09T16:23:03.810Z,8.51
2019-02-09T16:25:32.493Z,8.42
2019-02-09T16:28:01.115Z,8.19
2019-02-09T16:30:29.688Z,8.31
2019-02-09T16:32:58.575Z,8.28
2019-02-09T16:35:28.951Z,8.35
2019-02-09T16:37:57.543Z,8.30
2019-02-09T16:40:27.456Z,8.20
2019-02-09T16:42:56.182Z,8.14
2019-02-09T16:45:26.941Z,8.07
2019-02-09T16:47:55.636Z,7.99
2019-02-09T16:50:24.342Z,7.89
2019-02-09T16:52:53.398Z,7.93
2019-02-09T16:55:22.182Z,7.93
2019-02-09T16:57:50.884Z,7.92
2019-02-09T17:00:31.485Z,7.95
2019-02-09T17:03:00.316Z,7.83
2019-02-09T17:05:28.913Z,7.86
2019-02-09T17:07:57.827Z,7.79
2019-02-09T17:10:26.386Z,7.73
2019-02-09T17:12:54.985Z,7.81
2019-02-09T17:15:25.058Z,7.82
2019-02-09T17:17:53.946Z,7.77
2019-02-09T17:20:22.543Z,7.67
2019-02-09T17:22:51.798Z,7.60
2019-02-09T17:25:20.482Z,7.57
2019-02-09T17:27:49.749Z,7.49
2019-02-09T17:30:23.263Z,7.57
2019-02-09T17:32:51.902Z,7.59
2019-02-09T17:35:20.542Z,7.54
2019-02-09T17:37:49.397Z,7.57
2019-02-09T17:40:23.488Z,7.63
2019-02-09T17:42:53.262Z,7.63
2019-02-09T17:45:25.088Z,7.59
2019-02-09T17:47:53.883Z,7.55
2019-02-09T17:50:22.611Z,7.55
2019-02-09T17:52:51.488Z,7.50
2019-02-09T17:55:20.222Z,7.51
2019-02-09T17:57:49.065Z,7.44
2019-02-09T18:00:21.079Z,7.39
2019-02-09T18:02:49.819Z,7.31
2019-02-09T18:05:18.529Z,7.23
2019-02-09T18:07:47.224Z,7.17
2019-02-09T18:10:16.395Z,6.92
2019-02-09T18:12:45.100Z,6.95
2019-02-09T18:15:15.172Z,6.81
2019-02-09T18:17:44.263Z,6.69
2019-02-09T18:20:13.994Z,6.70
2019-02-09T18:22:42.651Z,6.86
2019-02-09T18:25:12.843Z,6.70
2019-02-09T18:27:41.606Z,6.80
2019-02-09T18:30:13.650Z,6.82
2019-02-09T18:32:42.264Z,6.85
2019-02-09T18:35:10.893Z,6.80
2019-02-09T18:37:39.548Z,6.88
2019-02-09T18:40:10.623Z,6.86
2019-02-09T18:42:39.245Z,6.79
2019-02-09T18:45:08.725Z,6.84
2019-02-09T18:47:37.372Z,6.75
2019-02-09T18:50:06.586Z,6.69
2019-02-09T18:52:35.210Z,6.77
2019-02-09T18:55:04.019Z,6.75
2019-02-09T18:57:32.655Z,6.80
2019-02-09T19:00:01.279Z,6.79
2019-02-09T19:02:30.029Z,6.79
2019-02-09T19:05:04.195Z,6.78
2019-02-09T19:07:28.974Z,6.83
2019-02-09T19:09:57.612Z,6.87
2019-02-09T19:12:26.279Z,6.88
2019-02-09T19:14:54.937Z,6.88
2019-02-09T19:17:23.626Z,6.92
2019-02-09T19:19:52.256Z,6.99
2019-02-09T19:22:20.875Z,6.95
2019-02-09T19:24:49.488Z,6.94
2019-02-09T19:27:18.114Z,6.96
2019-02-09T19:29:46.811Z,6.98
2019-02-09T19:32:15.437Z,6.96
2019-02-09T19:34:44.175Z,7.00
2019-02-09T19:37:12.866Z,7.04
2019-02-09T19:39:41.567Z,7.03
2019-02-09T19:42:10.190Z,7.01
2019-02-09T19:44:38.790Z,7.09
2019-02-09T19:47:07.401Z,7.04
2019-02-09T19:49:36.024Z,6.97
2019-02-09T19:52:04.664Z,7.01
2019-02-09T19:54:33.284Z,7.05
2019-02-09T19:57:01.925Z,6.98
2019-02-09T19:59:30.527Z,6.96
2019-02-09T20:01:59.112Z,6.99
2019-02-09T20:04:27.770Z,6.99
2019-02-09T20:06:56.381Z,7.00
2019-02-09T20:09:25.058Z,6.92
2019-02-09T20:11:53.666Z,6.91
2019-02-09T20:14:22.352Z,6.80
2019-02-09T20:16:50.973Z,6.78
2019-02-09T20:19:22.053Z,6.81
2019-02-09T20:21:50.630Z,6.80
2019-02-09T20:24:19.310Z,6.80
2019-02-09T20:26:48.011Z,6.83
2019-02-09T20:29:17.445Z,6.81
2019-02-09T20:31:46.033Z,6.91
2019-02-09T20:34:14.593Z,6.84
2019-02-09T20:36:43.276Z,6.86
2019-02-09T20:39:11.914Z,6.74
2019-02-09T20:41:40.655Z,6.70
2019-02-09T20:44:09.359Z,6.66
2019-02-09T20:46:37.993Z,6.66
2019-02-09T20:49:06.673Z,6.65
2019-02-09T20:51:35.328Z,6.63
2019-02-09T20:54:04.114Z,6.70
2019-02-09T20:56:32.756Z,6.62
2019-02-09T20:59:01.503Z,6.55
2019-02-09T21:01:30.108Z,6.52
2019-02-09T21:03:58.975Z,6.54
2019-02-09T21:06:27.587Z,6.43
2019-02-09T21:08:56.419Z,6.48
2019-02-09T21:11:25.046Z,6.42
2019-02-09T21:13:53.722Z,6.38
2019-02-09T21:16:22.305Z,6.41
2019-02-09T21:18:50.947Z,6.42
2019-02-09T21:21:19.556Z,6.37
2019-02-09T21:23:48.190Z,6.33
2019-02-09T21:26:16.815Z,6.27
2019-02-09T21:28:45.448Z,6.23
2019-02-09T21:31:14.065Z,6.20
2019-02-09T21:33:42.686Z,6.20
2019-02-09T21:36:30.569Z,6.29
2019-02-09T21:38:59.172Z,6.28
2019-02-09T21:41:27.917Z,6.35
2019-02-09T21:43:56.574Z,6.35
2019-02-09T21:46:25.201Z,6.35
2019-02-09T21:48:53.875Z,6.35
2019-02-09T21:51:22.779Z,6.34
2019-02-09T21:53:51.524Z,6.35
2019-02-09T21:56:20.122Z,6.34
2019-02-09T21:58:48.795Z,6.34
2019-02-09T22:01:17.397Z,6.32
2019-02-09T22:03:46.023Z,6.32
2019-02-09T22:06:14.642Z,6.34
2019-02-09T22:08:43.272Z,6.28
2019-02-09T22:11:12.301Z,6.29
2019-02-09T22:13:40.884Z,6.28
2019-02-09T22:16:09.507Z,6.27
2019-02-09T22:18:38.342Z,6.25
2019-02-09T22:21:06.958Z,6.21
2019-02-09T22:23:35.629Z,6.19
2019-02-09T22:26:05.333Z,6.19
2019-02-09T22:28:34.551Z,6.17
2019-02-09T22:31:03.146Z,6.23
2019-02-09T22:33:31.909Z,6.17
2019-02-09T22:36:00.570Z,6.18
2019-02-09T22:38:29.423Z,6.17
2019-02-09T22:40:58.049Z,6.20
2019-02-09T22:43:27.045Z,6.20
2019-02-09T22:45:55.656Z,6.19
2019-02-09T22:48:24.289Z,6.18
2019-02-09T22:50:52.973Z,6.16
2019-02-09T22:53:21.571Z,6.16
2019-02-09T22:55:50.243Z,6.13
2019-02-09T22:58:18.901Z,6.16
2019-02-09T23:01:20.353Z,6.17
2019-02-09T23:03:54.270Z,6.19
2019-02-09T23:06:41.605Z,6.18
2019-02-09T23:09:14.508Z,6.21
2019-02-09T23:11:43.592Z,6.24
2019-02-09T23:14:12.211Z,6.23
2019-02-09T23:16:40.944Z,6.25
2019-02-09T23:19:09.646Z,6.25
2019-02-09T23:21:38.221Z,6.28
2019-02-09T23:24:06.872Z,6.35
2019-02-09T23:26:35.452Z,6.40
2019-02-09T23:29:04.562Z,6.43
2019-02-09T23:31:33.205Z,6.49
2019-02-09T23:34:01.802Z,6.50
2019-02-09T23:36:30.515Z,6.52
2019-02-09T23:38:59.135Z,6.54
2019-02-09T23:41:27.814Z,6.54
2019-02-09T23:43:56.431Z,6.46
2019-02-09T23:46:25.006Z,6.44
2019-02-09T23:48:53.659Z,6.40
2019-02-09T23:51:22.255Z,6.35
2019-02-09T23:53:50.889Z,6.36
2019-02-09T23:56:20.031Z,6.29
2019-02-09T23:58:48.614Z,6.29
